Netaji Subhash Chandra Bose International Airport
VECC : now visible

Airfield :











YOU CAN JOIN US ON...

 
LOGIN :

Register | Disclaimer

   EN    FR    IT 

 









Legend :    VFR   Marginal VFR   IFR   Intensive IFR   Very Intensive IFR
Visi :
Ceiling :
>= 8 km
>= 3000ft
5 to 8 km
1000 to 3000 ft
1500m to 5 km
500 to 1000 ft
800 to 1500m
200 to 500 ft
< 800m
< 200 ft
Symbols :   Thunderstorms  Fog  Heavy snow  Heavy precipitations  Wind > 20 kt






- Airport Elevation : 16 ft
- IATA code : CCU


VECC - Netaji Subhash Chandra Bose International

CURRENT METAR :
  • 121330Z 06003KT 3200 HZ FEW020 22/19 Q1014 BECMG 3000 HZ

EXPIRED METARs :
  • 121300Z 06003KT 3200 HZ FEW020 22/19 Q1013 NOSIG
  • 121230Z 05003KT 3200 HZ FEW020 23/19 Q1013 NOSIG
  • 121200Z 05003KT 3200 HZ FEW020 23/19 Q1013 NOSIG
  • 121130Z 05003KT 3200 HZ FEW020 24/19 Q1013 NOSIG
  • 121100Z 04003KT 3500 HZ SCT020 24/20 Q1013 NOSIG

TAF TAF VECC
Valid from the 12 at 12:00 until the 13 at 18:00 UTC


121100Z 1212/1318 11004KT 3200 HZ SCT020
BECMG 1218/1220 00000KT 2500 BR
BECMG 1300/1302 1400 BR
BECMG 1304/1306 13005KT 2800 HZ
BECMG 1307/1309 3500 HZ
BECMG 1316/1318 00000KT 2800 BR HZ



MET'MAP, your aeronautical weather chart ! - Copyright ORBIFLY December 2007 - Disclaimer

ORBIFLY MET'MAP TEAM :

Programming & Development : Alexandra Zaïnal
Concept & original design : Baudouin d'Aumeries
Assistance for programming : Marc-Olivier Méhu
Technical & hardware support : Manuel Goepfert

Contact : metmap@orbifly.com




SOURCES & CREDITS :

   NOAA       Earth
Advisory